sensor_id;sensor_type;location;lat;lon;timestamp;temperature;humidity
19781;DHT22;10050;55.492;13.506;2023-04-03T00:00:32;1.30;99.90
19781;DHT22;10050;55.492;13.506;2023-04-03T00:02:58;1.30;99.90
19781;DHT22;10050;55.492;13.506;2023-04-03T00:05:24;1.30;99.90
19781;DHT22;10050;55.492;13.506;2023-04-03T00:07:50;1.30;99.90
19781;DHT22;10050;55.492;13.506;2023-04-03T00:10:16;1.30;99.90
19781;DHT22;10050;55.492;13.506;2023-04-03T00:12:41;1.20;99.90
19781;DHT22;10050;55.492;13.506;2023-04-03T00:15:07;1.20;99.90
19781;DHT22;10050;55.492;13.506;2023-04-03T00:17:33;1.20;99.90
19781;DHT22;10050;55.492;13.506;2023-04-03T00:19:59;1.20;99.90
19781;DHT22;10050;55.492;13.506;2023-04-03T00:22:24;1.20;99.90
19781;DHT22;10050;55.492;13.506;2023-04-03T00:24:52;1.20;99.90
19781;DHT22;10050;55.492;13.506;2023-04-03T00:27:17;1.10;99.90
19781;DHT22;10050;55.492;13.506;2023-04-03T00:29:43;1.10;99.90
19781;DHT22;10050;55.492;13.506;2023-04-03T00:32:08;1.10;99.90
19781;DHT22;10050;55.492;13.506;2023-04-03T00:34:34;1.10;99.90
19781;DHT22;10050;55.492;13.506;2023-04-03T00:37:00;1.00;99.90
19781;DHT22;10050;55.492;13.506;2023-04-03T00:39:27;1.00;99.90
19781;DHT22;10050;55.492;13.506;2023-04-03T00:41:52;0.90;99.90
19781;DHT22;10050;55.492;13.506;2023-04-03T00:46:59;0.90;99.90
19781;DHT22;10050;55.492;13.506;2023-04-03T00:49:26;0.90;99.90
19781;DHT22;10050;55.492;13.506;2023-04-03T00:51:52;1.00;99.90
19781;DHT22;10050;55.492;13.506;2023-04-03T00:54:18;0.90;99.90
19781;DHT22;10050;55.492;13.506;2023-04-03T00:56:44;1.00;99.90
19781;DHT22;10050;55.492;13.506;2023-04-03T00:59:13;0.90;99.90
19781;DHT22;10050;55.492;13.506;2023-04-03T01:01:40;0.90;99.90
19781;DHT22;10050;55.492;13.506;2023-04-03T01:04:27;0.90;99.90
19781;DHT22;10050;55.492;13.506;2023-04-03T01:06:55;0.90;99.90
19781;DHT22;10050;55.492;13.506;2023-04-03T01:09:21;0.80;99.90
19781;DHT22;10050;55.492;13.506;2023-04-03T01:11:48;0.90;99.90
19781;DHT22;10050;55.492;13.506;2023-04-03T01:14:14;0.80;99.90
19781;DHT22;10050;55.492;13.506;2023-04-03T01:16:40;0.70;99.90
19781;DHT22;10050;55.492;13.506;2023-04-03T01:19:10;0.70;99.90
19781;DHT22;10050;55.492;13.506;2023-04-03T01:22:03;0.70;99.90
19781;DHT22;10050;55.492;13.506;2023-04-03T01:24:35;0.70;99.90
19781;DHT22;10050;55.492;13.506;2023-04-03T01:27:03;0.70;99.90
19781;DHT22;10050;55.492;13.506;2023-04-03T01:29:30;0.60;99.90
19781;DHT22;10050;55.492;13.506;2023-04-03T01:32:00;0.70;99.90
19781;DHT22;10050;55.492;13.506;2023-04-03T01:34:26;0.70;99.90
19781;DHT22;10050;55.492;13.506;2023-04-03T01:36:53;0.60;99.90
19781;DHT22;10050;55.492;13.506;2023-04-03T01:39:19;0.60;99.90
19781;DHT22;10050;55.492;13.506;2023-04-03T01:41:45;0.60;99.90
19781;DHT22;10050;55.492;13.506;2023-04-03T01:44:11;0.60;99.90
19781;DHT22;10050;55.492;13.506;2023-04-03T01:46:37;0.60;99.90
19781;DHT22;10050;55.492;13.506;2023-04-03T01:49:03;0.70;99.90
19781;DHT22;10050;55.492;13.506;2023-04-03T01:51:30;0.80;99.90
19781;DHT22;10050;55.492;13.506;2023-04-03T01:53:56;0.80;99.90
19781;DHT22;10050;55.492;13.506;2023-04-03T01:56:22;0.70;99.90
19781;DHT22;10050;55.492;13.506;2023-04-03T01:58:47;0.60;99.90
19781;DHT22;10050;55.492;13.506;2023-04-03T02:01:15;0.70;99.90
19781;DHT22;10050;55.492;13.506;2023-04-03T02:03:41;0.70;99.90
19781;DHT22;10050;55.492;13.506;2023-04-03T02:06:07;0.60;99.90
19781;DHT22;10050;55.492;13.506;2023-04-03T02:08:32;0.70;99.90
19781;DHT22;10050;55.492;13.506;2023-04-03T02:10:58;0.60;99.90
19781;DHT22;10050;55.492;13.506;2023-04-03T02:13:24;0.70;99.90
19781;DHT22;10050;55.492;13.506;2023-04-03T02:15:49;0.70;99.90
19781;DHT22;10050;55.492;13.506;2023-04-03T02:18:15;0.70;99.90
19781;DHT22;10050;55.492;13.506;2023-04-03T02:20:41;0.70;99.90
19781;DHT22;10050;55.492;13.506;2023-04-03T02:23:07;0.70;99.90
19781;DHT22;10050;55.492;13.506;2023-04-03T02:25:33;0.60;99.90
19781;DHT22;10050;55.492;13.506;2023-04-03T02:27:59;0.60;99.90
19781;DHT22;10050;55.492;13.506;2023-04-03T02:30:24;0.60;99.90
19781;DHT22;10050;55.492;13.506;2023-04-03T02:32:50;0.50;99.90
19781;DHT22;10050;55.492;13.506;2023-04-03T02:35:16;0.50;99.90
19781;DHT22;10050;55.492;13.506;2023-04-03T02:37:42;0.50;99.90
19781;DHT22;10050;55.492;13.506;2023-04-03T02:40:07;0.40;99.90
19781;DHT22;10050;55.492;13.506;2023-04-03T02:42:33;0.40;99.90
19781;DHT22;10050;55.492;13.506;2023-04-03T02:44:59;0.40;99.90
19781;DHT22;10050;55.492;13.506;2023-04-03T02:47:26;0.30;99.90
19781;DHT22;10050;55.492;13.506;2023-04-03T02:49:52;0.40;99.90
19781;DHT22;10050;55.492;13.506;2023-04-03T02:52:18;0.40;99.90
19781;DHT22;10050;55.492;13.506;2023-04-03T02:54:43;0.40;99.90
19781;DHT22;10050;55.492;13.506;2023-04-03T02:57:10;0.50;99.90
19781;DHT22;10050;55.492;13.506;2023-04-03T02:59:36;0.50;99.90
19781;DHT22;10050;55.492;13.506;2023-04-03T03:02:03;0.50;99.90
19781;DHT22;10050;55.492;13.506;2023-04-03T03:04:28;0.50;99.90
19781;DHT22;10050;55.492;13.506;2023-04-03T03:06:54;0.50;99.90
19781;DHT22;10050;55.492;13.506;2023-04-03T03:09:20;0.50;99.90
19781;DHT22;10050;55.492;13.506;2023-04-03T03:11:46;0.50;99.90
19781;DHT22;10050;55.492;13.506;2023-04-03T03:14:11;0.50;99.90
19781;DHT22;10050;55.492;13.506;2023-04-03T03:16:37;0.50;99.90
19781;DHT22;10050;55.492;13.506;2023-04-03T03:19:02;0.50;99.90
19781;DHT22;10050;55.492;13.506;2023-04-03T03:21:28;0.40;99.90
19781;DHT22;10050;55.492;13.506;2023-04-03T03:23:56;0.30;99.90
19781;DHT22;10050;55.492;13.506;2023-04-03T03:26:22;0.30;99.90
19781;DHT22;10050;55.492;13.506;2023-04-03T03:28:47;0.20;99.90
19781;DHT22;10050;55.492;13.506;2023-04-03T03:31:13;0.20;99.90
19781;DHT22;10050;55.492;13.506;2023-04-03T03:33:41;0.20;99.90
19781;DHT22;10050;55.492;13.506;2023-04-03T03:36:07;0.10;99.90
19781;DHT22;10050;55.492;13.506;2023-04-03T03:38:32;0.10;99.90
19781;DHT22;10050;55.492;13.506;2023-04-03T03:40:58;0.10;99.90
19781;DHT22;10050;55.492;13.506;2023-04-03T03:43:24;0.10;99.90
19781;DHT22;10050;55.492;13.506;2023-04-03T03:45:51;0.00;99.90
19781;DHT22;10050;55.492;13.506;2023-04-03T03:48:18;0.00;99.90
19781;DHT22;10050;55.492;13.506;2023-04-03T03:50:43;0.00;99.90
19781;DHT22;10050;55.492;13.506;2023-04-03T03:53:09;0.10;99.90
19781;DHT22;10050;55.492;13.506;2023-04-03T03:55:35;0.10;99.90
19781;DHT22;10050;55.492;13.506;2023-04-03T03:58:01;0.10;99.90
19781;DHT22;10050;55.492;13.506;2023-04-03T04:00:27;0.10;99.90
19781;DHT22;10050;55.492;13.506;2023-04-03T04:02:53;0.10;99.90
19781;DHT22;10050;55.492;13.506;2023-04-03T04:05:19;0.10;99.90
19781;DHT22;10050;55.492;13.506;2023-04-03T04:07:45;0.00;99.90
19781;DHT22;10050;55.492;13.506;2023-04-03T04:10:10;0.00;99.90
19781;DHT22;10050;55.492;13.506;2023-04-03T04:12:36;0.00;99.90
19781;DHT22;10050;55.492;13.506;2023-04-03T04:15:02;0.00;99.90
19781;DHT22;10050;55.492;13.506;2023-04-03T04:17:28;0.00;99.90
19781;DHT22;10050;55.492;13.506;2023-04-03T04:19:54;0.00;99.90
19781;DHT22;10050;55.492;13.506;2023-04-03T04:22:19;0.00;99.90
19781;DHT22;10050;55.492;13.506;2023-04-03T04:24:45;0.00;99.90
19781;DHT22;10050;55.492;13.506;2023-04-03T04:27:11;0.00;99.90
19781;DHT22;10050;55.492;13.506;2023-04-03T04:29:36;0.00;99.90
19781;DHT22;10050;55.492;13.506;2023-04-03T04:32:05;0.00;99.90
19781;DHT22;10050;55.492;13.506;2023-04-03T04:34:31;0.00;99.90
19781;DHT22;10050;55.492;13.506;2023-04-03T04:36:56;0.00;99.90
19781;DHT22;10050;55.492;13.506;2023-04-03T04:39:23;0.00;99.90
19781;DHT22;10050;55.492;13.506;2023-04-03T04:41:49;0.00;99.90
19781;DHT22;10050;55.492;13.506;2023-04-03T04:44:15;0.10;99.90
19781;DHT22;10050;55.492;13.506;2023-04-03T04:46:41;0.10;99.90
19781;DHT22;10050;55.492;13.506;2023-04-03T04:49:06;0.10;99.90
19781;DHT22;10050;55.492;13.506;2023-04-03T04:51:32;0.10;99.90
19781;DHT22;10050;55.492;13.506;2023-04-03T04:53:58;0.10;99.90
19781;DHT22;10050;55.492;13.506;2023-04-03T04:56:23;0.10;99.90
19781;DHT22;10050;55.492;13.506;2023-04-03T04:58:49;0.10;99.90
19781;DHT22;10050;55.492;13.506;2023-04-03T05:01:15;0.10;99.90
19781;DHT22;10050;55.492;13.506;2023-04-03T05:03:41;0.10;99.90
19781;DHT22;10050;55.492;13.506;2023-04-03T05:06:06;0.00;99.90
19781;DHT22;10050;55.492;13.506;2023-04-03T05:08:32;-0.10;99.90
19781;DHT22;10050;55.492;13.506;2023-04-03T05:10:58;-0.10;99.90
19781;DHT22;10050;55.492;13.506;2023-04-03T05:13:24;-0.10;99.90
19781;DHT22;10050;55.492;13.506;2023-04-03T05:15:50;-0.10;99.90
19781;DHT22;10050;55.492;13.506;2023-04-03T05:18:15;-0.10;99.90
19781;DHT22;10050;55.492;13.506;2023-04-03T05:20:41;-0.10;99.90
19781;DHT22;10050;55.492;13.506;2023-04-03T05:23:09;-0.10;99.90
19781;DHT22;10050;55.492;13.506;2023-04-03T05:25:37;0.00;99.90
19781;DHT22;10050;55.492;13.506;2023-04-03T05:28:03;0.10;99.90
19781;DHT22;10050;55.492;13.506;2023-04-03T05:30:29;0.10;99.90
19781;DHT22;10050;55.492;13.506;2023-04-03T05:32:55;0.20;99.90
19781;DHT22;10050;55.492;13.506;2023-04-03T05:35:21;0.20;99.90
19781;DHT22;10050;55.492;13.506;2023-04-03T05:37:46;0.30;99.90
19781;DHT22;10050;55.492;13.506;2023-04-03T05:40:12;0.40;99.90
19781;DHT22;10050;55.492;13.506;2023-04-03T05:42:38;0.50;99.90
19781;DHT22;10050;55.492;13.506;2023-04-03T05:45:04;0.50;99.90
19781;DHT22;10050;55.492;13.506;2023-04-03T05:47:30;0.50;99.90
19781;DHT22;10050;55.492;13.506;2023-04-03T05:49:56;0.60;99.90
19781;DHT22;10050;55.492;13.506;2023-04-03T05:52:29;0.60;99.90
19781;DHT22;10050;55.492;13.506;2023-04-03T05:54:55;0.70;99.90
19781;DHT22;10050;55.492;13.506;2023-04-03T05:57:22;0.80;99.90
19781;DHT22;10050;55.492;13.506;2023-04-03T05:59:48;0.90;99.90
19781;DHT22;10050;55.492;13.506;2023-04-03T06:02:16;1.00;99.90
19781;DHT22;10050;55.492;13.506;2023-04-03T06:04:42;1.20;99.90
19781;DHT22;10050;55.492;13.506;2023-04-03T06:07:12;1.40;99.90
19781;DHT22;10050;55.492;13.506;2023-04-03T06:09:38;1.50;99.90
19781;DHT22;10050;55.492;13.506;2023-04-03T06:12:04;1.60;99.90
19781;DHT22;10050;55.492;13.506;2023-04-03T06:14:30;1.60;99.90
19781;DHT22;10050;55.492;13.506;2023-04-03T06:16:56;1.70;99.90
19781;DHT22;10050;55.492;13.506;2023-04-03T06:19:22;1.80;99.90
19781;DHT22;10050;55.492;13.506;2023-04-03T06:21:48;1.90;99.90
19781;DHT22;10050;55.492;13.506;2023-04-03T06:24:16;2.00;99.90
19781;DHT22;10050;55.492;13.506;2023-04-03T06:26:42;2.10;99.90
19781;DHT22;10050;55.492;13.506;2023-04-03T06:29:08;2.20;99.90
19781;DHT22;10050;55.492;13.506;2023-04-03T06:31:34;2.30;99.90
19781;DHT22;10050;55.492;13.506;2023-04-03T06:34:02;2.40;99.90
19781;DHT22;10050;55.492;13.506;2023-04-03T06:36:28;2.60;99.90
19781;DHT22;10050;55.492;13.506;2023-04-03T06:38:54;3.10;99.90
19781;DHT22;10050;55.492;13.506;2023-04-03T06:41:20;3.50;99.90
19781;DHT22;10050;55.492;13.506;2023-04-03T06:43:47;3.80;99.90
19781;DHT22;10050;55.492;13.506;2023-04-03T06:46:17;4.20;99.90
19781;DHT22;10050;55.492;13.506;2023-04-03T06:48:44;4.30;99.90
19781;DHT22;10050;55.492;13.506;2023-04-03T06:51:19;4.40;99.90
19781;DHT22;10050;55.492;13.506;2023-04-03T06:53:48;4.50;99.90
19781;DHT22;10050;55.492;13.506;2023-04-03T06:56:15;4.70;99.90
19781;DHT22;10050;55.492;13.506;2023-04-03T06:58:40;4.90;99.90
19781;DHT22;10050;55.492;13.506;2023-04-03T07:01:07;5.00;99.90
19781;DHT22;10050;55.492;13.506;2023-04-03T07:03:33;5.40;99.90
19781;DHT22;10050;55.492;13.506;2023-04-03T07:05:59;6.00;99.90
19781;DHT22;10050;55.492;13.506;2023-04-03T07:08:24;6.80;99.90
19781;DHT22;10050;55.492;13.506;2023-04-03T07:10:54;8.00;99.90
19781;DHT22;10050;55.492;13.506;2023-04-03T07:13:20;8.80;99.90
19781;DHT22;10050;55.492;13.506;2023-04-03T07:15:45;9.70;99.90
19781;DHT22;10050;55.492;13.506;2023-04-03T07:18:11;10.00;99.90
19781;DHT22;10050;55.492;13.506;2023-04-03T07:20:38;10.30;99.90
19781;DHT22;10050;55.492;13.506;2023-04-03T07:23:04;10.90;99.90
19781;DHT22;10050;55.492;13.506;2023-04-03T07:25:30;11.40;99.90
19781;DHT22;10050;55.492;13.506;2023-04-03T07:27:57;11.70;99.90
19781;DHT22;10050;55.492;13.506;2023-04-03T07:30:23;12.20;99.90
19781;DHT22;10050;55.492;13.506;2023-04-03T07:32:48;12.70;99.90
19781;DHT22;10050;55.492;13.506;2023-04-03T07:35:14;13.00;99.90
19781;DHT22;10050;55.492;13.506;2023-04-03T07:37:40;13.60;99.90
19781;DHT22;10050;55.492;13.506;2023-04-03T07:40:07;14.60;99.90
19781;DHT22;10050;55.492;13.506;2023-04-03T07:42:34;14.90;99.10
19781;DHT22;10050;55.492;13.506;2023-04-03T07:45:01;14.80;99.00
19781;DHT22;10050;55.492;13.506;2023-04-03T07:47:27;14.40;97.00
19781;DHT22;10050;55.492;13.506;2023-04-03T07:49:53;13.80;99.30
19781;DHT22;10050;55.492;13.506;2023-04-03T07:52:18;13.60;99.30
19781;DHT22;10050;55.492;13.506;2023-04-03T07:54:44;13.60;99.60
19781;DHT22;10050;55.492;13.506;2023-04-03T07:57:10;13.90;98.80
19781;DHT22;10050;55.492;13.506;2023-04-03T07:59:38;14.10;97.90
19781;DHT22;10050;55.492;13.506;2023-04-03T08:02:05;14.10;98.10
19781;DHT22;10050;55.492;13.506;2023-04-03T08:04:30;14.40;97.70
19781;DHT22;10050;55.492;13.506;2023-04-03T08:06:56;14.00;96.90
19781;DHT22;10050;55.492;13.506;2023-04-03T08:09:22;13.90;97.60
19781;DHT22;10050;55.492;13.506;2023-04-03T08:11:48;14.00;97.00
19781;DHT22;10050;55.492;13.506;2023-04-03T08:14:14;14.20;97.30
19781;DHT22;10050;55.492;13.506;2023-04-03T08:16:45;14.20;97.00
19781;DHT22;10050;55.492;13.506;2023-04-03T08:19:11;14.10;95.20
19781;DHT22;10050;55.492;13.506;2023-04-03T08:21:40;13.70;95.80
19781;DHT22;10050;55.492;13.506;2023-04-03T08:24:07;14.10;97.70
19781;DHT22;10050;55.492;13.506;2023-04-03T08:26:33;14.80;99.90
19781;DHT22;10050;55.492;13.506;2023-04-03T08:28:58;14.80;94.40
19781;DHT22;10050;55.492;13.506;2023-04-03T08:31:24;14.50;94.10
19781;DHT22;10050;55.492;13.506;2023-04-03T08:33:56;13.80;94.20
19781;DHT22;10050;55.492;13.506;2023-04-03T08:36:28;14.30;95.80
19781;DHT22;10050;55.492;13.506;2023-04-03T08:38:55;14.20;92.50
19781;DHT22;10050;55.492;13.506;2023-04-03T08:41:32;13.90;92.50
19781;DHT22;10050;55.492;13.506;2023-04-03T08:44:25;13.80;92.80
19781;DHT22;10050;55.492;13.506;2023-04-03T08:50:00;14.30;93.00
19781;DHT22;10050;55.492;13.506;2023-04-03T08:52:37;14.20;91.60
19781;DHT22;10050;55.492;13.506;2023-04-03T08:55:27;13.70;92.50
19781;DHT22;10050;55.492;13.506;2023-04-03T08:58:26;13.50;92.20
19781;DHT22;10050;55.492;13.506;2023-04-03T09:01:01;14.20;95.10
19781;DHT22;10050;55.492;13.506;2023-04-03T09:03:31;14.40;91.80
19781;DHT22;10050;55.492;13.506;2023-04-03T09:06:25;14.90;94.60
19781;DHT22;10050;55.492;13.506;2023-04-03T09:09:11;14.80;93.10
19781;DHT22;10050;55.492;13.506;2023-04-03T09:12:00;14.40;93.70
19781;DHT22;10050;55.492;13.506;2023-04-03T09:22:50;15.30;95.10
19781;DHT22;10050;55.492;13.506;2023-04-03T09:25:35;16.00;95.70
19781;DHT22;10050;55.492;13.506;2023-04-03T09:28:03;16.20;92.70
19781;DHT22;10050;55.492;13.506;2023-04-03T09:30:29;15.10;91.00
19781;DHT22;10050;55.492;13.506;2023-04-03T09:32:57;15.10;93.30
19781;DHT22;10050;55.492;13.506;2023-04-03T09:35:31;15.60;94.70
19781;DHT22;10050;55.492;13.506;2023-04-03T09:43:30;16.60;92.70
19781;DHT22;10050;55.492;13.506;2023-04-03T09:46:28;15.90;91.80
19781;DHT22;10050;55.492;13.506;2023-04-03T09:49:01;15.50;92.20
19781;DHT22;10050;55.492;13.506;2023-04-03T09:51:27;15.10;90.50
19781;DHT22;10050;55.492;13.506;2023-04-03T09:53:54;15.20;90.10
19781;DHT22;10050;55.492;13.506;2023-04-03T09:56:21;15.20;90.00
19781;DHT22;10050;55.492;13.506;2023-04-03T10:01:38;15.40;90.90
19781;DHT22;10050;55.492;13.506;2023-04-03T10:04:18;15.00;88.80
19781;DHT22;10050;55.492;13.506;2023-04-03T10:06:49;15.40;91.80
19781;DHT22;10050;55.492;13.506;2023-04-03T10:09:25;15.80;91.30
19781;DHT22;10050;55.492;13.506;2023-04-03T10:14:23;15.30;92.00
19781;DHT22;10050;55.492;13.506;2023-04-03T10:22:41;14.60;90.90
19781;DHT22;10050;55.492;13.506;2023-04-03T10:31:06;14.20;92.40
19781;DHT22;10050;55.492;13.506;2023-04-03T10:34:06;14.60;92.10
19781;DHT22;10050;55.492;13.506;2023-04-03T10:36:51;14.80;92.80
19781;DHT22;10050;55.492;13.506;2023-04-03T10:42:39;13.80;88.60
19781;DHT22;10050;55.492;13.506;2023-04-03T10:48:24;13.90;89.00
19781;DHT22;10050;55.492;13.506;2023-04-03T10:52:12;14.00;91.50
19781;DHT22;10050;55.492;13.506;2023-04-03T10:54:26;14.20;90.50
19781;DHT22;10050;55.492;13.506;2023-04-03T10:57:03;14.50;90.00
19781;DHT22;10050;55.492;13.506;2023-04-03T10:59:36;14.70;91.60
19781;DHT22;10050;55.492;13.506;2023-04-03T11:02:25;14.60;90.80
19781;DHT22;10050;55.492;13.506;2023-04-03T11:04:55;14.30;91.70
19781;DHT22;10050;55.492;13.506;2023-04-03T11:07:26;14.60;92.20
19781;DHT22;10050;55.492;13.506;2023-04-03T11:10:00;13.80;89.00
19781;DHT22;10050;55.492;13.506;2023-04-03T11:12:48;13.40;89.40
19781;DHT22;10050;55.492;13.506;2023-04-03T11:15:18;13.60;91.20
19781;DHT22;10050;55.492;13.506;2023-04-03T11:17:54;13.80;90.30
19781;DHT22;10050;55.492;13.506;2023-04-03T11:20:28;13.00;89.90
19781;DHT22;10050;55.492;13.506;2023-04-03T11:25:49;11.20;89.90
19781;DHT22;10050;55.492;13.506;2023-04-03T11:28:18;10.50;90.60
19781;DHT22;10050;55.492;13.506;2023-04-03T11:33:42;11.30;95.00
19781;DHT22;10050;55.492;13.506;2023-04-03T11:36:18;11.10;92.20
19781;DHT22;10050;55.492;13.506;2023-04-03T11:38:46;10.80;93.90
19781;DHT22;10050;55.492;13.506;2023-04-03T11:41:13;10.60;94.00
19781;DHT22;10050;55.492;13.506;2023-04-03T12:08:47;9.80;93.60
19781;DHT22;10050;55.492;13.506;2023-04-03T12:11:13;9.60;92.80
19781;DHT22;10050;55.492;13.506;2023-04-03T12:24:28;9.80;93.70
19781;DHT22;10050;55.492;13.506;2023-04-03T12:40:43;9.30;99.90
19781;DHT22;10050;55.492;13.506;2023-04-03T12:46:17;9.20;99.90
19781;DHT22;10050;55.492;13.506;2023-04-03T12:48:55;9.40;99.90
19781;DHT22;10050;55.492;13.506;2023-04-03T12:51:44;8.90;99.90
19781;DHT22;10050;55.492;13.506;2023-04-03T12:57:20;8.80;99.90
19781;DHT22;10050;55.492;13.506;2023-04-03T12:59:46;8.60;99.90
19781;DHT22;10050;55.492;13.506;2023-04-03T13:02:24;8.40;99.90
19781;DHT22;10050;55.492;13.506;2023-04-03T13:04:53;8.20;99.90
19781;DHT22;10050;55.492;13.506;2023-04-03T13:07:31;7.90;99.90
19781;DHT22;10050;55.492;13.506;2023-04-03T13:10:14;7.80;99.90
19781;DHT22;10050;55.492;13.506;2023-04-03T13:12:56;8.00;99.90
19781;DHT22;10050;55.492;13.506;2023-04-03T13:15:29;8.00;99.90
19781;DHT22;10050;55.492;13.506;2023-04-03T13:17:58;7.70;99.90
19781;DHT22;10050;55.492;13.506;2023-04-03T13:20:32;7.80;99.90
19781;DHT22;10050;55.492;13.506;2023-04-03T13:23:07;8.00;99.90
19781;DHT22;10050;55.492;13.506;2023-04-03T13:25:40;7.90;99.90
19781;DHT22;10050;55.492;13.506;2023-04-03T13:28:07;8.00;99.90
19781;DHT22;10050;55.492;13.506;2023-04-03T13:30:40;8.00;99.90
19781;DHT22;10050;55.492;13.506;2023-04-03T13:33:24;8.00;99.90
19781;DHT22;10050;55.492;13.506;2023-04-03T13:36:05;8.20;99.90
19781;DHT22;10050;55.492;13.506;2023-04-03T13:38:34;8.10;99.90
19781;DHT22;10050;55.492;13.506;2023-04-03T13:41:29;7.60;99.90
19781;DHT22;10050;55.492;13.506;2023-04-03T13:43:56;7.70;99.90
19781;DHT22;10050;55.492;13.506;2023-04-03T13:46:25;7.80;99.90
19781;DHT22;10050;55.492;13.506;2023-04-03T13:48:55;7.70;99.90
19781;DHT22;10050;55.492;13.506;2023-04-03T13:51:28;7.60;99.90
19781;DHT22;10050;55.492;13.506;2023-04-03T13:54:00;7.70;99.90
19781;DHT22;10050;55.492;13.506;2023-04-03T13:56:35;7.70;99.90
19781;DHT22;10050;55.492;13.506;2023-04-03T14:01:46;7.40;99.90
19781;DHT22;10050;55.492;13.506;2023-04-03T14:04:29;7.30;99.90
19781;DHT22;10050;55.492;13.506;2023-04-03T14:07:04;7.00;99.90
19781;DHT22;10050;55.492;13.506;2023-04-03T14:09:30;6.90;99.90
19781;DHT22;10050;55.492;13.506;2023-04-03T14:12:04;6.90;99.90
19781;DHT22;10050;55.492;13.506;2023-04-03T14:14:33;7.00;99.90
19781;DHT22;10050;55.492;13.506;2023-04-03T14:17:03;7.00;99.90
19781;DHT22;10050;55.492;13.506;2023-04-03T14:19:32;7.20;99.90
19781;DHT22;10050;55.492;13.506;2023-04-03T14:21:59;7.20;99.90
19781;DHT22;10050;55.492;13.506;2023-04-03T14:24:26;7.10;99.90
19781;DHT22;10050;55.492;13.506;2023-04-03T14:26:53;7.00;99.90
19781;DHT22;10050;55.492;13.506;2023-04-03T14:29:20;7.00;99.90
19781;DHT22;10050;55.492;13.506;2023-04-03T14:31:49;6.90;99.90
19781;DHT22;10050;55.492;13.506;2023-04-03T14:34:15;7.10;99.90
19781;DHT22;10050;55.492;13.506;2023-04-03T14:36:42;7.40;99.90
19781;DHT22;10050;55.492;13.506;2023-04-03T14:39:16;7.50;99.90
19781;DHT22;10050;55.492;13.506;2023-04-03T14:41:43;7.50;99.90
19781;DHT22;10050;55.492;13.506;2023-04-03T14:44:09;7.20;99.90
19781;DHT22;10050;55.492;13.506;2023-04-03T14:46:37;7.30;99.90
19781;DHT22;10050;55.492;13.506;2023-04-03T14:49:09;7.10;99.90
19781;DHT22;10050;55.492;13.506;2023-04-03T14:51:37;6.80;99.90
19781;DHT22;10050;55.492;13.506;2023-04-03T14:54:03;6.70;99.90
19781;DHT22;10050;55.492;13.506;2023-04-03T14:56:30;6.60;99.90
19781;DHT22;10050;55.492;13.506;2023-04-03T14:58:59;6.60;99.90
19781;DHT22;10050;55.492;13.506;2023-04-03T15:01:26;6.80;99.90
19781;DHT22;10050;55.492;13.506;2023-04-03T15:03:52;6.80;99.90
19781;DHT22;10050;55.492;13.506;2023-04-03T15:06:17;6.80;99.90
19781;DHT22;10050;55.492;13.506;2023-04-03T15:08:45;6.90;99.90
19781;DHT22;10050;55.492;13.506;2023-04-03T15:11:12;6.90;99.90
19781;DHT22;10050;55.492;13.506;2023-04-03T15:13:38;7.10;99.90
19781;DHT22;10050;55.492;13.506;2023-04-03T15:16:16;7.00;99.90
19781;DHT22;10050;55.492;13.506;2023-04-03T15:18:42;6.80;99.90
19781;DHT22;10050;55.492;13.506;2023-04-03T15:21:08;6.80;99.90
19781;DHT22;10050;55.492;13.506;2023-04-03T15:23:34;6.70;99.90
19781;DHT22;10050;55.492;13.506;2023-04-03T15:26:00;6.70;99.90
19781;DHT22;10050;55.492;13.506;2023-04-03T15:28:35;6.60;99.90
19781;DHT22;10050;55.492;13.506;2023-04-03T15:31:01;6.60;99.90
19781;DHT22;10050;55.492;13.506;2023-04-03T15:33:28;6.60;99.90
19781;DHT22;10050;55.492;13.506;2023-04-03T15:35:54;6.30;99.90
19781;DHT22;10050;55.492;13.506;2023-04-03T15:38:20;6.20;99.90
19781;DHT22;10050;55.492;13.506;2023-04-03T15:40:45;6.20;99.90
19781;DHT22;10050;55.492;13.506;2023-04-03T15:43:13;6.20;99.90
19781;DHT22;10050;55.492;13.506;2023-04-03T15:45:39;6.00;99.90
19781;DHT22;10050;55.492;13.506;2023-04-03T15:48:05;5.80;99.90
19781;DHT22;10050;55.492;13.506;2023-04-03T15:50:33;5.90;99.90
19781;DHT22;10050;55.492;13.506;2023-04-03T15:52:59;5.90;99.90
19781;DHT22;10050;55.492;13.506;2023-04-03T15:55:28;6.00;99.90
19781;DHT22;10050;55.492;13.506;2023-04-03T15:57:55;6.10;99.90
19781;DHT22;10050;55.492;13.506;2023-04-03T16:00:22;5.80;99.90
19781;DHT22;10050;55.492;13.506;2023-04-03T16:02:50;5.70;99.90
19781;DHT22;10050;55.492;13.506;2023-04-03T16:05:16;5.70;99.90
19781;DHT22;10050;55.492;13.506;2023-04-03T16:07:42;5.40;99.90
19781;DHT22;10050;55.492;13.506;2023-04-03T16:10:10;5.30;99.90
19781;DHT22;10050;55.492;13.506;2023-04-03T16:12:36;5.40;99.90
19781;DHT22;10050;55.492;13.506;2023-04-03T16:15:02;5.50;99.90
19781;DHT22;10050;55.492;13.506;2023-04-03T16:17:28;5.70;99.90
19781;DHT22;10050;55.492;13.506;2023-04-03T16:19:56;5.70;99.90
19781;DHT22;10050;55.492;13.506;2023-04-03T16:22:23;5.70;99.90
19781;DHT22;10050;55.492;13.506;2023-04-03T16:24:50;5.60;99.90
19781;DHT22;10050;55.492;13.506;2023-04-03T16:27:16;5.60;99.90
19781;DHT22;10050;55.492;13.506;2023-04-03T16:29:42;5.50;99.90
19781;DHT22;10050;55.492;13.506;2023-04-03T16:32:08;5.60;99.90
19781;DHT22;10050;55.492;13.506;2023-04-03T16:34:34;5.60;99.90
19781;DHT22;10050;55.492;13.506;2023-04-03T16:37:00;5.50;99.90
19781;DHT22;10050;55.492;13.506;2023-04-03T16:39:26;5.50;99.90
19781;DHT22;10050;55.492;13.506;2023-04-03T16:41:52;5.50;99.90
19781;DHT22;10050;55.492;13.506;2023-04-03T16:44:18;5.60;99.90
19781;DHT22;10050;55.492;13.506;2023-04-03T16:46:44;5.50;99.90
19781;DHT22;10050;55.492;13.506;2023-04-03T16:49:10;5.50;99.90
19781;DHT22;10050;55.492;13.506;2023-04-03T16:51:35;5.40;99.90
19781;DHT22;10050;55.492;13.506;2023-04-03T16:54:01;5.30;99.90
19781;DHT22;10050;55.492;13.506;2023-04-03T16:56:29;5.10;99.90
19781;DHT22;10050;55.492;13.506;2023-04-03T16:58:55;5.20;99.90
19781;DHT22;10050;55.492;13.506;2023-04-03T17:01:22;5.10;99.90
19781;DHT22;10050;55.492;13.506;2023-04-03T17:03:48;5.00;99.90
19781;DHT22;10050;55.492;13.506;2023-04-03T17:06:19;4.90;99.90
19781;DHT22;10050;55.492;13.506;2023-04-03T17:08:46;4.90;99.90
19781;DHT22;10050;55.492;13.506;2023-04-03T17:11:13;5.00;99.90
19781;DHT22;10050;55.492;13.506;2023-04-03T17:13:38;4.90;99.90
19781;DHT22;10050;55.492;13.506;2023-04-03T17:16:07;4.90;99.90
19781;DHT22;10050;55.492;13.506;2023-04-03T17:18:34;4.90;99.90
19781;DHT22;10050;55.492;13.506;2023-04-03T17:21:01;4.90;99.90
19781;DHT22;10050;55.492;13.506;2023-04-03T17:23:28;4.80;99.90